sensor_id;sensor_type;location;lat;lon;timestamp;temperature;humidity
9998;DHT22;5038;53.064;8.624;2023-04-23T00:01:39;14.20;99.90
9998;DHT22;5038;53.064;8.624;2023-04-23T00:04:08;14.20;99.90
9998;DHT22;5038;53.064;8.624;2023-04-23T00:06:38;14.10;99.90
9998;DHT22;5038;53.064;8.624;2023-04-23T00:09:14;14.10;99.90
9998;DHT22;5038;53.064;8.624;2023-04-23T00:11:42;14.10;99.90
9998;DHT22;5038;53.064;8.624;2023-04-23T00:14:11;14.00;99.90
9998;DHT22;5038;53.064;8.624;2023-04-23T00:16:40;14.10;99.90
9998;DHT22;5038;53.064;8.624;2023-04-23T00:19:08;14.00;99.90
9998;DHT22;5038;53.064;8.624;2023-04-23T00:21:36;13.90;99.90
9998;DHT22;5038;53.064;8.624;2023-04-23T00:24:05;13.90;99.90
9998;DHT22;5038;53.064;8.624;2023-04-23T00:26:34;13.80;99.90
9998;DHT22;5038;53.064;8.624;2023-04-23T00:29:02;13.80;99.90
9998;DHT22;5038;53.064;8.624;2023-04-23T00:31:30;13.70;99.90
9998;DHT22;5038;53.064;8.624;2023-04-23T00:33:58;13.70;99.90
9998;DHT22;5038;53.064;8.624;2023-04-23T00:36:27;13.70;99.90
9998;DHT22;5038;53.064;8.624;2023-04-23T00:38:55;13.70;99.90
9998;DHT22;5038;53.064;8.624;2023-04-23T00:41:23;13.60;99.90
9998;DHT22;5038;53.064;8.624;2023-04-23T00:43:55;13.50;99.90
9998;DHT22;5038;53.064;8.624;2023-04-23T00:46:24;13.50;99.90
9998;DHT22;5038;53.064;8.624;2023-04-23T00:48:53;13.50;99.90
9998;DHT22;5038;53.064;8.624;2023-04-23T00:51:22;13.40;99.90
9998;DHT22;5038;53.064;8.624;2023-04-23T00:53:50;13.40;99.90
9998;DHT22;5038;53.064;8.624;2023-04-23T00:56:19;13.40;99.90
9998;DHT22;5038;53.064;8.624;2023-04-23T00:58:49;13.30;99.90
9998;DHT22;5038;53.064;8.624;2023-04-23T01:01:19;13.30;99.90
9998;DHT22;5038;53.064;8.624;2023-04-23T01:03:48;13.30;99.90
9998;DHT22;5038;53.064;8.624;2023-04-23T01:06:18;13.20;99.90
9998;DHT22;5038;53.064;8.624;2023-04-23T01:08:47;13.10;99.90
9998;DHT22;5038;53.064;8.624;2023-04-23T01:11:16;13.10;99.90
9998;DHT22;5038;53.064;8.624;2023-04-23T01:13:44;13.10;99.90
9998;DHT22;5038;53.064;8.624;2023-04-23T01:16:12;13.00;99.90
9998;DHT22;5038;53.064;8.624;2023-04-23T01:18:41;13.00;99.90
9998;DHT22;5038;53.064;8.624;2023-04-23T01:21:10;13.00;99.90
9998;DHT22;5038;53.064;8.624;2023-04-23T01:23:40;13.00;99.90
9998;DHT22;5038;53.064;8.624;2023-04-23T01:26:09;12.90;99.90
9998;DHT22;5038;53.064;8.624;2023-04-23T01:28:37;12.90;99.90
9998;DHT22;5038;53.064;8.624;2023-04-23T01:31:06;12.80;99.90
9998;DHT22;5038;53.064;8.624;2023-04-23T01:33:34;12.80;99.90
9998;DHT22;5038;53.064;8.624;2023-04-23T01:36:03;12.80;99.90
9998;DHT22;5038;53.064;8.624;2023-04-23T01:38:32;12.80;99.90
9998;DHT22;5038;53.064;8.624;2023-04-23T01:41:02;12.70;99.90
9998;DHT22;5038;53.064;8.624;2023-04-23T01:43:31;12.60;99.90
9998;DHT22;5038;53.064;8.624;2023-04-23T01:46:00;12.60;99.90
9998;DHT22;5038;53.064;8.624;2023-04-23T01:48:28;12.60;99.90
9998;DHT22;5038;53.064;8.624;2023-04-23T01:50:57;12.60;99.90
9998;DHT22;5038;53.064;8.624;2023-04-23T01:53:26;12.60;99.90
9998;DHT22;5038;53.064;8.624;2023-04-23T01:55:55;12.60;99.90
9998;DHT22;5038;53.064;8.624;2023-04-23T01:58:24;12.50;99.90
9998;DHT22;5038;53.064;8.624;2023-04-23T02:00:53;12.50;99.90
9998;DHT22;5038;53.064;8.624;2023-04-23T02:03:21;12.50;99.90
9998;DHT22;5038;53.064;8.624;2023-04-23T02:05:53;12.50;99.90
9998;DHT22;5038;53.064;8.624;2023-04-23T02:08:21;12.50;99.90
9998;DHT22;5038;53.064;8.624;2023-04-23T02:10:50;12.40;99.90
9998;DHT22;5038;53.064;8.624;2023-04-23T02:13:19;12.40;99.90
9998;DHT22;5038;53.064;8.624;2023-04-23T02:15:48;12.30;99.90
9998;DHT22;5038;53.064;8.624;2023-04-23T02:18:16;12.30;99.90
9998;DHT22;5038;53.064;8.624;2023-04-23T02:20:45;12.20;99.90
9998;DHT22;5038;53.064;8.624;2023-04-23T02:23:13;12.20;99.90
9998;DHT22;5038;53.064;8.624;2023-04-23T02:25:41;12.10;99.90
9998;DHT22;5038;53.064;8.624;2023-04-23T02:28:09;12.10;99.90
9998;DHT22;5038;53.064;8.624;2023-04-23T02:30:40;12.00;99.90
9998;DHT22;5038;53.064;8.624;2023-04-23T02:33:13;12.00;99.90
9998;DHT22;5038;53.064;8.624;2023-04-23T02:35:41;12.00;99.90
9998;DHT22;5038;53.064;8.624;2023-04-23T02:38:09;12.00;99.90
9998;DHT22;5038;53.064;8.624;2023-04-23T02:40:37;12.00;99.90
9998;DHT22;5038;53.064;8.624;2023-04-23T02:43:05;12.00;99.90
9998;DHT22;5038;53.064;8.624;2023-04-23T02:45:34;12.00;99.90
9998;DHT22;5038;53.064;8.624;2023-04-23T02:48:02;12.00;99.90
9998;DHT22;5038;53.064;8.624;2023-04-23T02:50:32;12.00;99.90
9998;DHT22;5038;53.064;8.624;2023-04-23T02:53:00;12.00;99.90
9998;DHT22;5038;53.064;8.624;2023-04-23T02:55:29;11.90;99.90
9998;DHT22;5038;53.064;8.624;2023-04-23T02:57:58;11.90;99.90
9998;DHT22;5038;53.064;8.624;2023-04-23T03:00:28;11.90;99.90
9998;DHT22;5038;53.064;8.624;2023-04-23T03:02:56;11.80;99.90
9998;DHT22;5038;53.064;8.624;2023-04-23T03:05:24;11.80;99.90
9998;DHT22;5038;53.064;8.624;2023-04-23T03:07:54;11.80;99.90
9998;DHT22;5038;53.064;8.624;2023-04-23T03:10:22;11.80;99.90
9998;DHT22;5038;53.064;8.624;2023-04-23T03:12:50;11.80;99.90
9998;DHT22;5038;53.064;8.624;2023-04-23T03:15:19;11.70;99.90
9998;DHT22;5038;53.064;8.624;2023-04-23T03:17:47;11.70;99.90
9998;DHT22;5038;53.064;8.624;2023-04-23T03:20:16;11.60;99.90
9998;DHT22;5038;53.064;8.624;2023-04-23T03:22:45;11.60;99.90
9998;DHT22;5038;53.064;8.624;2023-04-23T03:25:15;11.60;99.90
9998;DHT22;5038;53.064;8.624;2023-04-23T03:27:43;11.60;99.90
9998;DHT22;5038;53.064;8.624;2023-04-23T03:30:12;11.50;99.90
9998;DHT22;5038;53.064;8.624;2023-04-23T03:32:40;11.50;99.90
9998;DHT22;5038;53.064;8.624;2023-04-23T03:35:10;11.50;99.90
9998;DHT22;5038;53.064;8.624;2023-04-23T03:37:42;11.50;99.90
9998;DHT22;5038;53.064;8.624;2023-04-23T03:40:12;11.50;99.90
9998;DHT22;5038;53.064;8.624;2023-04-23T03:42:43;11.50;99.90
9998;DHT22;5038;53.064;8.624;2023-04-23T03:45:14;11.50;99.90
9998;DHT22;5038;53.064;8.624;2023-04-23T03:47:43;11.50;99.90
9998;DHT22;5038;53.064;8.624;2023-04-23T03:50:12;11.40;99.90
9998;DHT22;5038;53.064;8.624;2023-04-23T03:52:43;11.40;99.90
9998;DHT22;5038;53.064;8.624;2023-04-23T03:55:19;11.30;99.90
9998;DHT22;5038;53.064;8.624;2023-04-23T03:57:49;11.30;99.90
9998;DHT22;5038;53.064;8.624;2023-04-23T04:00:23;11.30;99.90
9998;DHT22;5038;53.064;8.624;2023-04-23T04:02:51;11.30;99.90
9998;DHT22;5038;53.064;8.624;2023-04-23T04:05:21;11.30;99.90
9998;DHT22;5038;53.064;8.624;2023-04-23T04:07:52;11.30;99.90
9998;DHT22;5038;53.064;8.624;2023-04-23T04:10:23;11.30;99.90
9998;DHT22;5038;53.064;8.624;2023-04-23T04:12:53;11.30;99.90
9998;DHT22;5038;53.064;8.624;2023-04-23T04:15:22;11.30;99.90
9998;DHT22;5038;53.064;8.624;2023-04-23T04:17:50;11.30;99.90
9998;DHT22;5038;53.064;8.624;2023-04-23T04:20:18;11.30;99.90
9998;DHT22;5038;53.064;8.624;2023-04-23T04:22:47;11.30;99.90
9998;DHT22;5038;53.064;8.624;2023-04-23T04:25:15;11.20;99.90
9998;DHT22;5038;53.064;8.624;2023-04-23T04:27:43;11.20;99.90
9998;DHT22;5038;53.064;8.624;2023-04-23T04:30:13;11.20;99.90
9998;DHT22;5038;53.064;8.624;2023-04-23T04:32:41;11.20;99.90
9998;DHT22;5038;53.064;8.624;2023-04-23T04:35:11;11.20;99.90
9998;DHT22;5038;53.064;8.624;2023-04-23T04:37:40;11.20;99.90
9998;DHT22;5038;53.064;8.624;2023-04-23T04:40:10;11.10;99.90
9998;DHT22;5038;53.064;8.624;2023-04-23T04:42:38;11.10;99.90
9998;DHT22;5038;53.064;8.624;2023-04-23T04:45:07;11.10;99.90
9998;DHT22;5038;53.064;8.624;2023-04-23T04:47:37;11.10;99.90
9998;DHT22;5038;53.064;8.624;2023-04-23T04:50:06;11.10;99.90
9998;DHT22;5038;53.064;8.624;2023-04-23T04:52:34;11.10;99.90
9998;DHT22;5038;53.064;8.624;2023-04-23T04:55:03;11.10;99.90
9998;DHT22;5038;53.064;8.624;2023-04-23T04:57:32;11.10;99.90
9998;DHT22;5038;53.064;8.624;2023-04-23T05:00:01;11.10;99.90
9998;DHT22;5038;53.064;8.624;2023-04-23T05:02:38;11.10;99.90
9998;DHT22;5038;53.064;8.624;2023-04-23T05:05:07;11.10;99.90
9998;DHT22;5038;53.064;8.624;2023-04-23T05:07:35;11.10;99.90
9998;DHT22;5038;53.064;8.624;2023-04-23T05:10:03;11.10;99.90
9998;DHT22;5038;53.064;8.624;2023-04-23T05:12:32;11.10;99.90
9998;DHT22;5038;53.064;8.624;2023-04-23T05:15:00;11.10;99.90
9998;DHT22;5038;53.064;8.624;2023-04-23T05:17:28;11.10;99.90
9998;DHT22;5038;53.064;8.624;2023-04-23T05:19:57;11.10;99.90
9998;DHT22;5038;53.064;8.624;2023-04-23T05:22:26;11.10;99.90
9998;DHT22;5038;53.064;8.624;2023-04-23T05:24:54;11.10;99.90
9998;DHT22;5038;53.064;8.624;2023-04-23T05:27:22;11.10;99.90
9998;DHT22;5038;53.064;8.624;2023-04-23T05:29:50;11.20;99.90
9998;DHT22;5038;53.064;8.624;2023-04-23T05:32:19;11.20;99.90
9998;DHT22;5038;53.064;8.624;2023-04-23T05:34:47;11.20;99.90
9998;DHT22;5038;53.064;8.624;2023-04-23T05:37:16;11.20;99.90
9998;DHT22;5038;53.064;8.624;2023-04-23T05:39:44;11.20;99.90
9998;DHT22;5038;53.064;8.624;2023-04-23T05:42:13;11.20;99.90
9998;DHT22;5038;53.064;8.624;2023-04-23T05:44:41;11.20;99.90
9998;DHT22;5038;53.064;8.624;2023-04-23T05:47:10;11.20;99.90
9998;DHT22;5038;53.064;8.624;2023-04-23T05:49:38;11.20;99.90
9998;DHT22;5038;53.064;8.624;2023-04-23T05:52:07;11.20;99.90
9998;DHT22;5038;53.064;8.624;2023-04-23T05:54:36;11.20;99.90
9998;DHT22;5038;53.064;8.624;2023-04-23T05:57:05;11.30;99.90
9998;DHT22;5038;53.064;8.624;2023-04-23T05:59:33;11.30;99.90
9998;DHT22;5038;53.064;8.624;2023-04-23T06:02:02;11.30;99.90
9998;DHT22;5038;53.064;8.624;2023-04-23T06:04:30;11.30;99.90
9998;DHT22;5038;53.064;8.624;2023-04-23T06:06:58;11.40;99.90
9998;DHT22;5038;53.064;8.624;2023-04-23T06:09:26;11.30;99.90
9998;DHT22;5038;53.064;8.624;2023-04-23T06:11:56;11.40;99.90
9998;DHT22;5038;53.064;8.624;2023-04-23T06:14:24;11.40;99.90
9998;DHT22;5038;53.064;8.624;2023-04-23T06:16:52;11.60;99.90
9998;DHT22;5038;53.064;8.624;2023-04-23T06:19:20;11.70;99.90
9998;DHT22;5038;53.064;8.624;2023-04-23T06:21:50;11.80;99.90
9998;DHT22;5038;53.064;8.624;2023-04-23T06:24:19;12.00;99.90
9998;DHT22;5038;53.064;8.624;2023-04-23T06:26:47;12.10;99.90
9998;DHT22;5038;53.064;8.624;2023-04-23T06:29:19;12.30;99.90
9998;DHT22;5038;53.064;8.624;2023-04-23T06:32:01;12.30;99.90
9998;DHT22;5038;53.064;8.624;2023-04-23T06:34:30;12.40;99.90
9998;DHT22;5038;53.064;8.624;2023-04-23T06:36:59;12.50;99.90
9998;DHT22;5038;53.064;8.624;2023-04-23T06:39:27;12.60;99.90
9998;DHT22;5038;53.064;8.624;2023-04-23T06:41:55;12.80;99.90
9998;DHT22;5038;53.064;8.624;2023-04-23T06:44:55;13.00;99.90
9998;DHT22;5038;53.064;8.624;2023-04-23T06:47:25;13.00;99.90
9998;DHT22;5038;53.064;8.624;2023-04-23T06:49:53;13.00;99.90
9998;DHT22;5038;53.064;8.624;2023-04-23T06:52:21;13.00;99.90
9998;DHT22;5038;53.064;8.624;2023-04-23T06:54:49;13.20;99.90
9998;DHT22;5038;53.064;8.624;2023-04-23T06:57:17;13.40;99.90
9998;DHT22;5038;53.064;8.624;2023-04-23T06:59:46;13.50;99.90
9998;DHT22;5038;53.064;8.624;2023-04-23T07:02:17;13.60;99.90
9998;DHT22;5038;53.064;8.624;2023-04-23T07:04:45;13.60;99.90
9998;DHT22;5038;53.064;8.624;2023-04-23T07:07:13;13.50;99.90
9998;DHT22;5038;53.064;8.624;2023-04-23T07:09:42;13.60;99.90
9998;DHT22;5038;53.064;8.624;2023-04-23T07:12:10;13.80;99.90
9998;DHT22;5038;53.064;8.624;2023-04-23T07:14:38;14.00;99.90
9998;DHT22;5038;53.064;8.624;2023-04-23T07:17:07;14.20;99.90
9998;DHT22;5038;53.064;8.624;2023-04-23T07:19:38;14.40;99.90
9998;DHT22;5038;53.064;8.624;2023-04-23T07:22:06;14.60;99.90
9998;DHT22;5038;53.064;8.624;2023-04-23T07:24:34;14.90;99.90
9998;DHT22;5038;53.064;8.624;2023-04-23T07:27:02;15.10;99.90
9998;DHT22;5038;53.064;8.624;2023-04-23T07:29:31;15.30;99.90
9998;DHT22;5038;53.064;8.624;2023-04-23T07:31:59;15.40;99.90
9998;DHT22;5038;53.064;8.624;2023-04-23T07:34:27;15.60;99.90
9998;DHT22;5038;53.064;8.624;2023-04-23T07:36:57;15.70;99.90
9998;DHT22;5038;53.064;8.624;2023-04-23T07:39:25;15.80;99.90
9998;DHT22;5038;53.064;8.624;2023-04-23T07:41:53;15.90;99.90
9998;DHT22;5038;53.064;8.624;2023-04-23T07:44:22;16.00;99.90
9998;DHT22;5038;53.064;8.624;2023-04-23T07:46:50;16.20;99.90
9998;DHT22;5038;53.064;8.624;2023-04-23T07:49:19;16.30;99.90
9998;DHT22;5038;53.064;8.624;2023-04-23T07:51:47;16.30;99.90
9998;DHT22;5038;53.064;8.624;2023-04-23T07:54:16;16.30;99.90
9998;DHT22;5038;53.064;8.624;2023-04-23T07:56:44;16.40;99.90
9998;DHT22;5038;53.064;8.624;2023-04-23T07:59:13;16.50;99.90
9998;DHT22;5038;53.064;8.624;2023-04-23T08:01:41;16.60;99.90
9998;DHT22;5038;53.064;8.624;2023-04-23T08:04:10;16.70;99.90
9998;DHT22;5038;53.064;8.624;2023-04-23T08:06:40;16.70;99.90
9998;DHT22;5038;53.064;8.624;2023-04-23T08:09:08;16.70;99.90
9998;DHT22;5038;53.064;8.624;2023-04-23T08:11:38;16.70;99.90
9998;DHT22;5038;53.064;8.624;2023-04-23T08:14:06;16.70;99.90
9998;DHT22;5038;53.064;8.624;2023-04-23T08:16:34;16.80;99.90
9998;DHT22;5038;53.064;8.624;2023-04-23T08:19:05;16.90;99.90
9998;DHT22;5038;53.064;8.624;2023-04-23T08:21:34;17.00;99.90
9998;DHT22;5038;53.064;8.624;2023-04-23T08:24:02;17.20;99.90
9998;DHT22;5038;53.064;8.624;2023-04-23T08:26:31;17.30;99.90
9998;DHT22;5038;53.064;8.624;2023-04-23T08:29:00;17.40;99.90
9998;DHT22;5038;53.064;8.624;2023-04-23T08:31:29;17.50;99.90
9998;DHT22;5038;53.064;8.624;2023-04-23T08:33:57;17.60;99.90
9998;DHT22;5038;53.064;8.624;2023-04-23T08:36:25;17.70;99.90
9998;DHT22;5038;53.064;8.624;2023-04-23T08:38:55;17.80;99.90
9998;DHT22;5038;53.064;8.624;2023-04-23T08:41:26;17.90;99.90
9998;DHT22;5038;53.064;8.624;2023-04-23T08:44:05;18.00;99.90
9998;DHT22;5038;53.064;8.624;2023-04-23T08:46:36;18.10;99.90
9998;DHT22;5038;53.064;8.624;2023-04-23T08:49:06;18.20;99.90
9998;DHT22;5038;53.064;8.624;2023-04-23T08:51:36;18.30;99.90
9998;DHT22;5038;53.064;8.624;2023-04-23T08:54:06;18.40;99.90
9998;DHT22;5038;53.064;8.624;2023-04-23T08:56:37;18.50;99.90
9998;DHT22;5038;53.064;8.624;2023-04-23T08:59:07;18.50;99.90
9998;DHT22;5038;53.064;8.624;2023-04-23T09:01:35;18.60;99.90
9998;DHT22;5038;53.064;8.624;2023-04-23T09:04:04;18.70;99.90
9998;DHT22;5038;53.064;8.624;2023-04-23T09:06:33;18.80;99.90
9998;DHT22;5038;53.064;8.624;2023-04-23T09:09:02;18.90;99.90
9998;DHT22;5038;53.064;8.624;2023-04-23T09:11:34;18.90;99.90
9998;DHT22;5038;53.064;8.624;2023-04-23T09:14:04;18.90;99.90
9998;DHT22;5038;53.064;8.624;2023-04-23T09:16:33;18.90;99.90
9998;DHT22;5038;53.064;8.624;2023-04-23T09:19:02;19.00;99.90
9998;DHT22;5038;53.064;8.624;2023-04-23T09:21:31;19.10;99.90
9998;DHT22;5038;53.064;8.624;2023-04-23T09:23:59;19.10;99.90
9998;DHT22;5038;53.064;8.624;2023-04-23T09:26:30;19.20;99.90
9998;DHT22;5038;53.064;8.624;2023-04-23T09:28:58;19.30;99.90
9998;DHT22;5038;53.064;8.624;2023-04-23T09:31:26;19.40;99.90
9998;DHT22;5038;53.064;8.624;2023-04-23T09:33:57;19.40;99.90
9998;DHT22;5038;53.064;8.624;2023-04-23T09:36:25;19.50;99.90
9998;DHT22;5038;53.064;8.624;2023-04-23T09:38:55;19.50;99.90
9998;DHT22;5038;53.064;8.624;2023-04-23T09:41:25;19.50;99.90
9998;DHT22;5038;53.064;8.624;2023-04-23T09:43:54;19.60;99.90
9998;DHT22;5038;53.064;8.624;2023-04-23T09:46:33;19.60;99.90
9998;DHT22;5038;53.064;8.624;2023-04-23T09:49:04;19.70;99.90
9998;DHT22;5038;53.064;8.624;2023-04-23T09:51:35;19.80;99.90
9998;DHT22;5038;53.064;8.624;2023-04-23T09:54:10;19.90;99.90
9998;DHT22;5038;53.064;8.624;2023-04-23T09:56:38;19.90;99.90
9998;DHT22;5038;53.064;8.624;2023-04-23T09:59:20;20.00;99.90
9998;DHT22;5038;53.064;8.624;2023-04-23T10:02:01;20.10;99.90
9998;DHT22;5038;53.064;8.624;2023-04-23T10:04:31;20.10;99.90
9998;DHT22;5038;53.064;8.624;2023-04-23T10:07:02;20.20;99.90
9998;DHT22;5038;53.064;8.624;2023-04-23T10:09:45;20.20;99.90
9998;DHT22;5038;53.064;8.624;2023-04-23T10:12:14;20.20;99.90
9998;DHT22;5038;53.064;8.624;2023-04-23T10:15:03;20.20;99.90
9998;DHT22;5038;53.064;8.624;2023-04-23T10:17:32;20.20;99.90
9998;DHT22;5038;53.064;8.624;2023-04-23T10:20:04;20.10;99.90
9998;DHT22;5038;53.064;8.624;2023-04-23T10:22:34;20.10;99.90
9998;DHT22;5038;53.064;8.624;2023-04-23T10:25:04;20.20;99.90
9998;DHT22;5038;53.064;8.624;2023-04-23T10:27:38;20.20;99.90
9998;DHT22;5038;53.064;8.624;2023-04-23T10:30:20;20.30;99.90
9998;DHT22;5038;53.064;8.624;2023-04-23T10:32:49;20.40;99.90
9998;DHT22;5038;53.064;8.624;2023-04-23T10:35:19;20.40;99.90
9998;DHT22;5038;53.064;8.624;2023-04-23T10:37:47;20.50;99.90
9998;DHT22;5038;53.064;8.624;2023-04-23T10:40:19;20.60;99.90
9998;DHT22;5038;53.064;8.624;2023-04-23T10:42:48;20.70;99.90
9998;DHT22;5038;53.064;8.624;2023-04-23T10:45:19;20.70;99.90
9998;DHT22;5038;53.064;8.624;2023-04-23T10:47:52;20.70;99.90
9998;DHT22;5038;53.064;8.624;2023-04-23T10:50:24;20.80;99.90
9998;DHT22;5038;53.064;8.624;2023-04-23T10:52:53;20.70;99.80
9998;DHT22;5038;53.064;8.624;2023-04-23T10:55:25;20.70;99.80
9998;DHT22;5038;53.064;8.624;2023-04-23T10:57:58;20.70;99.80
9998;DHT22;5038;53.064;8.624;2023-04-23T11:00:41;20.70;99.60
9998;DHT22;5038;53.064;8.624;2023-04-23T11:03:30;20.80;99.50
9998;DHT22;5038;53.064;8.624;2023-04-23T11:06:02;20.80;99.30
9998;DHT22;5038;53.064;8.624;2023-04-23T11:08:31;20.90;99.40
9998;DHT22;5038;53.064;8.624;2023-04-23T11:11:00;20.90;99.20
9998;DHT22;5038;53.064;8.624;2023-04-23T11:13:29;20.80;98.90
9998;DHT22;5038;53.064;8.624;2023-04-23T11:16:13;20.80;98.80
9998;DHT22;5038;53.064;8.624;2023-04-23T11:18:58;20.80;98.90
9998;DHT22;5038;53.064;8.624;2023-04-23T11:22:02;20.90;98.80
9998;DHT22;5038;53.064;8.624;2023-04-23T11:24:31;20.90;98.70
9998;DHT22;5038;53.064;8.624;2023-04-23T11:27:00;21.00;98.70
9998;DHT22;5038;53.064;8.624;2023-04-23T11:29:28;21.00;98.80
9998;DHT22;5038;53.064;8.624;2023-04-23T11:31:57;21.00;98.70
9998;DHT22;5038;53.064;8.624;2023-04-23T11:34:30;20.90;98.60
9998;DHT22;5038;53.064;8.624;2023-04-23T11:36:59;20.90;98.50
9998;DHT22;5038;53.064;8.624;2023-04-23T11:39:31;20.80;98.30
9998;DHT22;5038;53.064;8.624;2023-04-23T11:41:59;20.80;98.40
9998;DHT22;5038;53.064;8.624;2023-04-23T11:44:32;20.70;98.30
9998;DHT22;5038;53.064;8.624;2023-04-23T11:47:00;20.60;98.30
9998;DHT22;5038;53.064;8.624;2023-04-23T11:49:29;20.60;98.30
9998;DHT22;5038;53.064;8.624;2023-04-23T11:51:59;20.60;98.50
9998;DHT22;5038;53.064;8.624;2023-04-23T11:54:29;20.70;98.60
9998;DHT22;5038;53.064;8.624;2023-04-23T11:56:58;20.80;98.50
9998;DHT22;5038;53.064;8.624;2023-04-23T11:59:27;21.00;98.40
9998;DHT22;5038;53.064;8.624;2023-04-23T12:01:56;21.00;98.20
9998;DHT22;5038;53.064;8.624;2023-04-23T12:04:26;21.00;97.90
9998;DHT22;5038;53.064;8.624;2023-04-23T12:06:55;21.00;97.80
9998;DHT22;5038;53.064;8.624;2023-04-23T12:09:25;20.90;97.60
9998;DHT22;5038;53.064;8.624;2023-04-23T12:11:56;20.90;97.60
9998;DHT22;5038;53.064;8.624;2023-04-23T12:14:26;20.80;97.50
9998;DHT22;5038;53.064;8.624;2023-04-23T12:16:56;20.70;97.40
9998;DHT22;5038;53.064;8.624;2023-04-23T12:19:26;20.70;97.50
9998;DHT22;5038;53.064;8.624;2023-04-23T12:21:55;20.70;97.60
9998;DHT22;5038;53.064;8.624;2023-04-23T12:24:25;20.80;97.60
9998;DHT22;5038;53.064;8.624;2023-04-23T12:26:57;20.90;97.70
9998;DHT22;5038;53.064;8.624;2023-04-23T12:29:29;20.90;97.40
9998;DHT22;5038;53.064;8.624;2023-04-23T12:31:58;21.00;97.30
9998;DHT22;5038;53.064;8.624;2023-04-23T12:34:26;21.00;97.10
9998;DHT22;5038;53.064;8.624;2023-04-23T12:36:55;21.00;97.10
9998;DHT22;5038;53.064;8.624;2023-04-23T12:39:25;21.10;97.00
9998;DHT22;5038;53.064;8.624;2023-04-23T12:41:57;21.10;97.10
9998;DHT22;5038;53.064;8.624;2023-04-23T12:44:28;21.20;96.90
9998;DHT22;5038;53.064;8.624;2023-04-23T12:46:59;21.10;96.60
9998;DHT22;5038;53.064;8.624;2023-04-23T12:49:30;21.10;96.20
9998;DHT22;5038;53.064;8.624;2023-04-23T12:51:59;21.10;96.10
9998;DHT22;5038;53.064;8.624;2023-04-23T12:54:30;21.20;96.20
9998;DHT22;5038;53.064;8.624;2023-04-23T12:57:00;21.20;96.10
9998;DHT22;5038;53.064;8.624;2023-04-23T12:59:29;21.20;96.00
9998;DHT22;5038;53.064;8.624;2023-04-23T13:01:57;21.10;95.80
9998;DHT22;5038;53.064;8.624;2023-04-23T13:04:28;21.10;95.80
9998;DHT22;5038;53.064;8.624;2023-04-23T13:06:57;21.20;95.70
9998;DHT22;5038;53.064;8.624;2023-04-23T13:09:25;21.20;95.60
9998;DHT22;5038;53.064;8.624;2023-04-23T13:11:54;21.10;95.50
9998;DHT22;5038;53.064;8.624;2023-04-23T13:14:24;21.10;95.40
9998;DHT22;5038;53.064;8.624;2023-04-23T13:16:53;21.10;95.40
9998;DHT22;5038;53.064;8.624;2023-04-23T13:19:22;21.10;95.40
9998;DHT22;5038;53.064;8.624;2023-04-23T13:21:50;21.20;95.40
9998;DHT22;5038;53.064;8.624;2023-04-23T13:24:19;21.20;95.30
9998;DHT22;5038;53.064;8.624;2023-04-23T13:26:48;21.30;95.70
9998;DHT22;5038;53.064;8.624;2023-04-23T13:29:16;21.30;95.20
9998;DHT22;5038;53.064;8.624;2023-04-23T13:31:45;21.20;95.00
9998;DHT22;5038;53.064;8.624;2023-04-23T13:34:13;21.20;95.00
9998;DHT22;5038;53.064;8.624;2023-04-23T13:36:42;21.10;94.90
9998;DHT22;5038;53.064;8.624;2023-04-23T13:39:10;21.10;94.90
9998;DHT22;5038;53.064;8.624;2023-04-23T13:41:40;21.10;94.90
9998;DHT22;5038;53.064;8.624;2023-04-23T13:44:08;21.20;95.00
9998;DHT22;5038;53.064;8.624;2023-04-23T13:46:36;21.20;95.00
9998;DHT22;5038;53.064;8.624;2023-04-23T13:49:07;21.20;94.50
9998;DHT22;5038;53.064;8.624;2023-04-23T13:51:35;21.20;94.30
9998;DHT22;5038;53.064;8.624;2023-04-23T13:54:04;21.10;94.20
9998;DHT22;5038;53.064;8.624;2023-04-23T13:56:32;21.10;94.20
9998;DHT22;5038;53.064;8.624;2023-04-23T13:59:00;21.10;94.30
9998;DHT22;5038;53.064;8.624;2023-04-23T14:01:33;21.10;94.30
9998;DHT22;5038;53.064;8.624;2023-04-23T14:04:01;21.10;94.50
9998;DHT22;5038;53.064;8.624;2023-04-23T14:06:31;21.10;94.60
9998;DHT22;5038;53.064;8.624;2023-04-23T14:09:00;21.10;94.50
9998;DHT22;5038;53.064;8.624;2023-04-23T14:11:28;21.20;94.60
9998;DHT22;5038;53.064;8.624;2023-04-23T14:13:56;21.20;94.50
9998;DHT22;5038;53.064;8.624;2023-04-23T14:16:27;21.20;94.40
9998;DHT22;5038;53.064;8.624;2023-04-23T14:18:55;21.20;94.30
9998;DHT22;5038;53.064;8.624;2023-04-23T14:21:24;21.20;94.20
9998;DHT22;5038;53.064;8.624;2023-04-23T14:23:59;21.20;94.10
9998;DHT22;5038;53.064;8.624;2023-04-23T14:26:32;21.10;94.00
9998;DHT22;5038;53.064;8.624;2023-04-23T14:29:22;21.10;94.10
9998;DHT22;5038;53.064;8.624;2023-04-23T14:31:51;21.20;94.20
9998;DHT22;5038;53.064;8.624;2023-04-23T14:34:19;21.20;93.90
9998;DHT22;5038;53.064;8.624;2023-04-23T14:36:48;21.10;93.70
9998;DHT22;5038;53.064;8.624;2023-04-23T14:39:21;21.10;93.50
9998;DHT22;5038;53.064;8.624;2023-04-23T14:41:49;21.10;93.50
9998;DHT22;5038;53.064;8.624;2023-04-23T14:44:17;21.00;93.40
9998;DHT22;5038;53.064;8.624;2023-04-23T14:46:45;21.00;93.30
9998;DHT22;5038;53.064;8.624;2023-04-23T14:49:16;20.90;93.20
9998;DHT22;5038;53.064;8.624;2023-04-23T14:51:45;20.90;93.10
9998;DHT22;5038;53.064;8.624;2023-04-23T14:54:13;20.80;93.10
9998;DHT22;5038;53.064;8.624;2023-04-23T14:56:42;20.70;93.10
9998;DHT22;5038;53.064;8.624;2023-04-23T14:59:10;20.70;93.30
9998;DHT22;5038;53.064;8.624;2023-04-23T15:01:39;20.60;93.10
9998;DHT22;5038;53.064;8.624;2023-04-23T15:04:09;20.60;93.10
9998;DHT22;5038;53.064;8.624;2023-04-23T15:06:37;20.50;93.30
9998;DHT22;5038;53.064;8.624;2023-04-23T15:09:06;20.40;93.70
9998;DHT22;5038;53.064;8.624;2023-04-23T15:11:34;20.40;94.00
9998;DHT22;5038;53.064;8.624;2023-04-23T15:14:15;20.30;94.30
9998;DHT22;5038;53.064;8.624;2023-04-23T15:16:45;20.20;94.60
9998;DHT22;5038;53.064;8.624;2023-04-23T15:19:16;20.20;95.00
9998;DHT22;5038;53.064;8.624;2023-04-23T15:21:45;20.10;95.30
9998;DHT22;5038;53.064;8.624;2023-04-23T15:24:14;20.10;95.60
9998;DHT22;5038;53.064;8.624;2023-04-23T15:26:43;20.00;95.70
9998;DHT22;5038;53.064;8.624;2023-04-23T15:29:13;20.00;95.90
9998;DHT22;5038;53.064;8.624;2023-04-23T15:31:41;19.90;96.10
9998;DHT22;5038;53.064;8.624;2023-04-23T15:34:10;19.90;96.30
9998;DHT22;5038;53.064;8.624;2023-04-23T15:36:38;19.90;96.40
9998;DHT22;5038;53.064;8.624;2023-04-23T15:39:06;19.80;96.40
9998;DHT22;5038;53.064;8.624;2023-04-23T15:41:35;19.80;96.50
9998;DHT22;5038;53.064;8.624;2023-04-23T15:44:08;19.80;96.60
9998;DHT22;5038;53.064;8.624;2023-04-23T15:46:39;19.70;96.60
9998;DHT22;5038;53.064;8.624;2023-04-23T15:49:07;19.70;96.70
9998;DHT22;5038;53.064;8.624;2023-04-23T15:51:35;19.70;96.70
9998;DHT22;5038;53.064;8.624;2023-04-23T15:54:04;19.70;96.90
9998;DHT22;5038;53.064;8.624;2023-04-23T15:56:35;19.70;96.90
9998;DHT22;5038;53.064;8.624;2023-04-23T15:59:03;19.60;96.90
9998;DHT22;5038;53.064;8.624;2023-04-23T16:01:32;19.60;97.00
9998;DHT22;5038;53.064;8.624;2023-04-23T16:04:01;19.50;97.00
9998;DHT22;5038;53.064;8.624;2023-04-23T16:06:32;19.50;97.10
9998;DHT22;5038;53.064;8.624;2023-04-23T16:09:01;19.50;97.20
9998;DHT22;5038;53.064;8.624;2023-04-23T16:11:33;19.40;97.30
9998;DHT22;5038;53.064;8.624;2023-04-23T16:14:01;19.40;97.40
9998;DHT22;5038;53.064;8.624;2023-04-23T16:16:30;19.30;97.40
9998;DHT22;5038;53.064;8.624;2023-04-23T16:18:58;19.30;97.60